This is the latest recevied weather packets stored in our database for station/object DB0OHL. If no packets are shown the sender has not sent any weather packets the latest 10 day(s).
| Time | Temp. | Humidity | Pressure | Rain* | Wind** | Luminosity | Snow |
|---|---|---|---|---|---|---|---|
| 1777780554 | 13.89° C | 98% | 1011.3 hPa | 0 mm | - | - | - |
| 1777779951 | 13.89° C | 97% | 1011.3 hPa | 0 mm | - | - | - |
| 1777779349 | 14.44° C | 97% | 1011.1 hPa | 0 mm | - | - | - |
| 1777778746 | 14.44° C | 97% | 1011.4 hPa | 0 mm | - | - | - |
| 1777778144 | 14.44° C | 97% | 1011.6 hPa | 0 mm | - | - | - |
| 1777777541 | 14.44° C | 97% | 1011.7 hPa | 0 mm | - | - | - |
| 1777776939 | 13.89° C | 98% | 1011.6 hPa | 0 mm | - | - | - |
| 1777776336 | 13.89° C | 97% | 1011.4 hPa | 0 mm | - | - | - |
| 1777775734 | 14.44° C | 95% | 1011.6 hPa | 0 mm | - | - | - |
| 1777775131 | 14.44° C | 94% | 1011.6 hPa | 0 mm | - | - | - |
| 1777774528 | 14.44° C | 93% | 1011.7 hPa | 0 mm | - | - | - |
| 1777773926 | 14.44° C | 93% | 1011.7 hPa | 0 mm | - | - | - |
| 1777773323 | 14.44° C | 93% | 1011.9 hPa | 0 mm | - | - | - |
| 1777772721 | 15° C | 93% | 1011.9 hPa | 0 mm | - | - | - |
| 1777772118 | 15° C | 94% | 1012 hPa | 0 mm | - | - | - |
| 1777771516 | 15.56° C | 93% | 1012 hPa | 0 mm | - | - | - |
| 1777770973 | 15° C | 93% | 1012 hPa | 0 mm | - | - | - |
| 1777770371 | 15° C | 91% | 1012.3 hPa | 0 mm | - | - | - |
| 1777769768 | 15° C | 92% | 1012.4 hPa | 0 mm | - | - | - |
| 1777769166 | 13.89° C | 96% | 1012.4 hPa | 0 mm | - | - | - |
| 1777768563 | 13.89° C | 96% | 1012.7 hPa | 0 mm | - | - | - |
| 1777767961 | 14.44° C | 96% | 1013 hPa | 0 mm | - | - | - |
| 1777767358 | 15° C | 90% | 1013.1 hPa | 0 mm | - | - | - |
| 1777766756 | 14.44° C | 96% | 1013.4 hPa | 0 mm | - | - | - |
| 1777766153 | 13.89° C | 98% | 1013.6 hPa | 0 mm | - | - | - |
* Rain latest hour (hover to see other rain measurements)
** Current wind speed in m/s (hover to see current wind gust speed)